sensor_id;sensor_type;location;lat;lon;timestamp;pressure;altitude;pressure_sealevel;temperature;humidity
18765;BME280;9511;54.242;12.448;2023-01-23T00:01:29;103527.00;;;1.22;100.00
18765;BME280;9511;54.242;12.448;2023-01-23T00:03:57;103531.84;;;1.19;100.00
18765;BME280;9511;54.242;12.448;2023-01-23T00:06:25;103533.13;;;1.22;100.00
18765;BME280;9511;54.242;12.448;2023-01-23T00:08:53;103532.78;;;1.19;100.00
18765;BME280;9511;54.242;12.448;2023-01-23T00:11:23;103537.06;;;1.19;100.00
18765;BME280;9511;54.242;12.448;2023-01-23T00:13:51;103525.72;;;1.18;100.00
18765;BME280;9511;54.242;12.448;2023-01-23T00:16:20;103531.69;;;1.17;100.00
18765;BME280;9511;54.242;12.448;2023-01-23T00:18:50;103522.28;;;1.26;100.00
18765;BME280;9511;54.242;12.448;2023-01-23T00:21:20;103520.41;;;1.25;100.00
18765;BME280;9511;54.242;12.448;2023-01-23T00:23:49;103525.16;;;1.21;100.00
18765;BME280;9511;54.242;12.448;2023-01-23T00:26:18;103520.50;;;1.18;100.00
18765;BME280;9511;54.242;12.448;2023-01-23T00:28:46;103518.66;;;1.17;100.00
18765;BME280;9511;54.242;12.448;2023-01-23T00:31:16;103516.81;;;1.16;100.00
18765;BME280;9511;54.242;12.448;2023-01-23T00:33:44;103521.13;;;1.16;100.00
18765;BME280;9511;54.242;12.448;2023-01-23T00:36:14;103521.78;;;1.22;100.00
18765;BME280;9511;54.242;12.448;2023-01-23T00:38:41;103517.63;;;1.24;100.00
18765;BME280;9511;54.242;12.448;2023-01-23T00:41:08;103523.13;;;1.18;100.00
18765;BME280;9511;54.242;12.448;2023-01-23T00:43:36;103525.72;;;1.18;100.00
18765;BME280;9511;54.242;12.448;2023-01-23T00:46:03;103524.97;;;1.19;100.00
18765;BME280;9511;54.242;12.448;2023-01-23T00:48:32;103528.50;;;1.20;100.00
18765;BME280;9511;54.242;12.448;2023-01-23T00:50:59;103535.06;;;1.16;100.00
18765;BME280;9511;54.242;12.448;2023-01-23T00:53:28;103544.13;;;1.20;100.00
18765;BME280;9511;54.242;12.448;2023-01-23T00:55:55;103540.78;;;1.21;100.00
18765;BME280;9511;54.242;12.448;2023-01-23T00:58:23;103550.44;;;1.22;100.00
18765;BME280;9511;54.242;12.448;2023-01-23T01:00:50;103566.25;;;1.23;100.00
18765;BME280;9511;54.242;12.448;2023-01-23T01:03:18;103566.41;;;1.25;100.00
18765;BME280;9511;54.242;12.448;2023-01-23T01:05:46;103564.00;;;1.26;100.00
18765;BME280;9511;54.242;12.448;2023-01-23T01:08:13;103567.97;;;1.31;100.00
18765;BME280;9511;54.242;12.448;2023-01-23T01:10:42;103564.94;;;1.36;100.00
18765;BME280;9511;54.242;12.448;2023-01-23T01:13:10;103572.88;;;1.28;100.00
18765;BME280;9511;54.242;12.448;2023-01-23T01:15:37;103569.94;;;1.25;100.00
18765;BME280;9511;54.242;12.448;2023-01-23T01:18:05;103568.69;;;1.22;100.00
18765;BME280;9511;54.242;12.448;2023-01-23T01:20:32;103567.03;;;1.22;100.00
18765;BME280;9511;54.242;12.448;2023-01-23T01:22:59;103574.84;;;1.22;100.00
18765;BME280;9511;54.242;12.448;2023-01-23T01:25:26;103572.22;;;1.22;100.00
18765;BME280;9511;54.242;12.448;2023-01-23T01:27:55;103574.84;;;1.22;100.00
18765;BME280;9511;54.242;12.448;2023-01-23T01:30:22;103577.09;;;1.19;100.00
18765;BME280;9511;54.242;12.448;2023-01-23T01:32:53;103584.91;;;1.19;100.00
18765;BME280;9511;54.242;12.448;2023-01-23T01:35:21;103585.44;;;1.24;100.00
18765;BME280;9511;54.242;12.448;2023-01-23T01:37:50;103580.38;;;1.25;100.00
18765;BME280;9511;54.242;12.448;2023-01-23T01:40:20;103590.13;;;1.19;100.00
18765;BME280;9511;54.242;12.448;2023-01-23T01:42:49;103588.78;;;1.23;100.00
18765;BME280;9511;54.242;12.448;2023-01-23T01:48:26;103589.38;;;1.20;100.00
18765;BME280;9511;54.242;12.448;2023-01-23T01:50:55;103588.63;;;1.21;100.00
18765;BME280;9511;54.242;12.448;2023-01-23T01:53:25;103591.06;;;1.20;100.00
18765;BME280;9511;54.242;12.448;2023-01-23T01:55:53;103582.66;;;1.22;100.00
18765;BME280;9511;54.242;12.448;2023-01-23T01:58:21;103598.19;;;1.29;100.00
18765;BME280;9511;54.242;12.448;2023-01-23T02:00:48;103600.81;;;1.29;100.00
18765;BME280;9511;54.242;12.448;2023-01-23T02:03:16;103593.84;;;1.21;100.00
18765;BME280;9511;54.242;12.448;2023-01-23T02:05:47;103596.28;;;1.20;100.00
18765;BME280;9511;54.242;12.448;2023-01-23T02:08:19;103595.34;;;1.19;100.00
18765;BME280;9511;54.242;12.448;2023-01-23T02:10:47;103586.59;;;1.19;100.00
18765;BME280;9511;54.242;12.448;2023-01-23T02:13:21;103600.16;;;1.23;100.00
18765;BME280;9511;54.242;12.448;2023-01-23T02:15:50;103594.78;;;1.22;100.00
18765;BME280;9511;54.242;12.448;2023-01-23T02:18:18;103597.97;;;1.19;100.00
18765;BME280;9511;54.242;12.448;2023-01-23T02:20:50;103602.84;;;1.16;100.00
18765;BME280;9511;54.242;12.448;2023-01-23T02:23:25;103612.53;;;1.17;100.00
18765;BME280;9511;54.242;12.448;2023-01-23T02:26:02;103604.09;;;1.20;100.00
18765;BME280;9511;54.242;12.448;2023-01-23T02:28:37;103605.47;;;1.16;100.00
18765;BME280;9511;54.242;12.448;2023-01-23T02:31:06;103611.44;;;1.15;100.00
18765;BME280;9511;54.242;12.448;2023-01-23T02:33:43;103615.88;;;1.16;100.00
18765;BME280;9511;54.242;12.448;2023-01-23T02:36:12;103611.91;;;1.20;100.00
18765;BME280;9511;54.242;12.448;2023-01-23T02:38:44;103614.06;;;1.15;100.00
18765;BME280;9511;54.242;12.448;2023-01-23T02:41:17;103624.47;;;1.15;100.00
18765;BME280;9511;54.242;12.448;2023-01-23T02:43:47;103629.69;;;1.15;100.00
18765;BME280;9511;54.242;12.448;2023-01-23T02:46:15;103631.84;;;1.19;100.00
18765;BME280;9511;54.242;12.448;2023-01-23T02:48:45;103638.19;;;1.21;100.00
18765;BME280;9511;54.242;12.448;2023-01-23T02:51:13;103634.69;;;1.29;100.00
18765;BME280;9511;54.242;12.448;2023-01-23T02:53:43;103631.78;;;1.26;100.00
18765;BME280;9511;54.242;12.448;2023-01-23T02:56:10;103628.06;;;1.24;100.00
18765;BME280;9511;54.242;12.448;2023-01-23T02:58:39;103632.84;;;1.28;100.00
18765;BME280;9511;54.242;12.448;2023-01-23T03:01:24;103638.06;;;1.28;100.00
18765;BME280;9511;54.242;12.448;2023-01-23T03:03:52;103644.56;;;1.32;100.00
18765;BME280;9511;54.242;12.448;2023-01-23T03:06:22;103634.84;;;1.31;100.00
18765;BME280;9511;54.242;12.448;2023-01-23T03:08:50;103634.69;;;1.29;100.00
18765;BME280;9511;54.242;12.448;2023-01-23T03:11:17;103641.66;;;1.38;100.00
18765;BME280;9511;54.242;12.448;2023-01-23T03:13:46;103644.25;;;1.38;100.00
18765;BME280;9511;54.242;12.448;2023-01-23T03:16:14;103650.44;;;1.38;100.00
18765;BME280;9511;54.242;12.448;2023-01-23T03:18:41;103643.53;;;1.39;100.00
18765;BME280;9511;54.242;12.448;2023-01-23T03:21:09;103640.00;;;1.38;100.00
18765;BME280;9511;54.242;12.448;2023-01-23T03:23:40;103626.78;;;1.37;100.00
18765;BME280;9511;54.242;12.448;2023-01-23T03:26:09;103629.84;;;1.32;100.00
18765;BME280;9511;54.242;12.448;2023-01-23T03:28:37;103632.25;;;1.31;100.00
18765;BME280;9511;54.242;12.448;2023-01-23T03:31:19;103627.03;;;1.31;100.00
18765;BME280;9511;54.242;12.448;2023-01-23T03:33:46;103634.59;;;1.37;100.00
18765;BME280;9511;54.242;12.448;2023-01-23T03:36:14;103634.28;;;1.33;100.00
18765;BME280;9511;54.242;12.448;2023-01-23T03:38:41;103635.38;;;1.36;100.00
18765;BME280;9511;54.242;12.448;2023-01-23T03:41:29;103640.94;;;1.39;100.00
18765;BME280;9511;54.242;12.448;2023-01-23T03:44:01;103637.97;;;1.36;100.00
18765;BME280;9511;54.242;12.448;2023-01-23T03:46:29;103648.50;;;1.28;100.00
18765;BME280;9511;54.242;12.448;2023-01-23T03:48:56;103645.47;;;1.32;100.00
18765;BME280;9511;54.242;12.448;2023-01-23T03:51:24;103644.38;;;1.30;100.00
18765;BME280;9511;54.242;12.448;2023-01-23T03:53:52;103643.34;;;1.37;100.00
18765;BME280;9511;54.242;12.448;2023-01-23T03:56:19;103651.78;;;1.35;100.00
18765;BME280;9511;54.242;12.448;2023-01-23T03:58:47;103649.69;;;1.39;100.00
18765;BME280;9511;54.242;12.448;2023-01-23T04:01:14;103655.56;;;1.45;100.00
18765;BME280;9511;54.242;12.448;2023-01-23T04:03:44;103659.50;;;1.42;100.00
18765;BME280;9511;54.242;12.448;2023-01-23T04:06:12;103656.88;;;1.42;100.00
18765;BME280;9511;54.242;12.448;2023-01-23T04:08:39;103658.41;;;1.40;100.00
18765;BME280;9511;54.242;12.448;2023-01-23T04:11:08;103659.19;;;1.39;100.00
18765;BME280;9511;54.242;12.448;2023-01-23T04:13:37;103663.28;;;1.37;100.00
18765;BME280;9511;54.242;12.448;2023-01-23T04:16:05;103657.50;;;1.39;100.00
18765;BME280;9511;54.242;12.448;2023-01-23T04:18:33;103657.75;;;1.33;100.00
18765;BME280;9511;54.242;12.448;2023-01-23T04:21:01;103653.13;;;1.31;100.00
18765;BME280;9511;54.242;12.448;2023-01-23T04:23:30;103656.34;;;1.28;100.00
18765;BME280;9511;54.242;12.448;2023-01-23T04:25:57;103660.78;;;1.29;100.00
18765;BME280;9511;54.242;12.448;2023-01-23T04:28:24;103657.25;;;1.29;100.00
18765;BME280;9511;54.242;12.448;2023-01-23T04:30:53;103670.78;;;1.33;100.00
18765;BME280;9511;54.242;12.448;2023-01-23T04:33:26;103657.41;;;1.30;100.00
18765;BME280;9511;54.242;12.448;2023-01-23T04:35:56;103663.53;;;1.31;100.00
18765;BME280;9511;54.242;12.448;2023-01-23T04:38:29;103670.91;;;1.26;100.00
18765;BME280;9511;54.242;12.448;2023-01-23T04:41:02;103669.38;;;1.28;100.00
18765;BME280;9511;54.242;12.448;2023-01-23T04:43:33;103667.16;;;1.24;100.00
18765;BME280;9511;54.242;12.448;2023-01-23T04:46:07;103672.38;;;1.24;100.00
18765;BME280;9511;54.242;12.448;2023-01-23T04:48:57;103666.25;;;1.24;100.00
18765;BME280;9511;54.242;12.448;2023-01-23T04:51:25;103666.09;;;1.22;100.00
18765;BME280;9511;54.242;12.448;2023-01-23T04:53:54;103664.97;;;1.20;100.00
18765;BME280;9511;54.242;12.448;2023-01-23T04:56:22;103665.69;;;1.26;100.00
18765;BME280;9511;54.242;12.448;2023-01-23T04:58:49;103661.81;;;1.23;100.00
18765;BME280;9511;54.242;12.448;2023-01-23T05:01:19;103657.34;;;1.22;100.00
18765;BME280;9511;54.242;12.448;2023-01-23T05:03:49;103662.56;;;1.22;100.00
18765;BME280;9511;54.242;12.448;2023-01-23T05:06:17;103668.34;;;1.19;100.00
18765;BME280;9511;54.242;12.448;2023-01-23T05:08:45;103654.56;;;1.20;100.00
18765;BME280;9511;54.242;12.448;2023-01-23T05:11:21;103663.50;;;1.22;100.00
18765;BME280;9511;54.242;12.448;2023-01-23T05:13:48;103661.38;;;1.27;100.00
18765;BME280;9511;54.242;12.448;2023-01-23T05:16:16;103666.59;;;1.27;100.00
18765;BME280;9511;54.242;12.448;2023-01-23T05:19:12;103667.53;;;1.27;100.00
18765;BME280;9511;54.242;12.448;2023-01-23T05:21:40;103669.63;;;1.23;100.00
18765;BME280;9511;54.242;12.448;2023-01-23T05:24:11;103659.75;;;1.20;100.00
18765;BME280;9511;54.242;12.448;2023-01-23T05:26:40;103662.56;;;1.22;100.00
18765;BME280;9511;54.242;12.448;2023-01-23T05:29:08;103661.97;;;1.24;100.00
18765;BME280;9511;54.242;12.448;2023-01-23T05:31:40;103676.09;;;1.26;100.00
18765;BME280;9511;54.242;12.448;2023-01-23T05:34:28;103682.25;;;1.27;100.00
18765;BME280;9511;54.242;12.448;2023-01-23T05:36:55;103680.06;;;1.23;100.00
18765;BME280;9511;54.242;12.448;2023-01-23T05:39:23;103679.13;;;1.22;100.00
18765;BME280;9511;54.242;12.448;2023-01-23T05:41:52;103685.44;;;1.24;100.00
18765;BME280;9511;54.242;12.448;2023-01-23T05:44:48;103690.31;;;1.21;100.00
18765;BME280;9511;54.242;12.448;2023-01-23T05:47:38;103690.72;;;1.17;100.00
18765;BME280;9511;54.242;12.448;2023-01-23T05:50:07;103684.91;;;1.20;100.00
18765;BME280;9511;54.242;12.448;2023-01-23T05:52:37;103693.66;;;1.20;100.00
18765;BME280;9511;54.242;12.448;2023-01-23T05:55:06;103691.81;;;1.19;100.00
18765;BME280;9511;54.242;12.448;2023-01-23T05:57:36;103698.88;;;1.20;100.00
18765;BME280;9511;54.242;12.448;2023-01-23T06:00:22;103701.41;;;1.27;100.00
18765;BME280;9511;54.242;12.448;2023-01-23T06:03:12;103701.22;;;1.26;100.00
18765;BME280;9511;54.242;12.448;2023-01-23T06:05:52;103704.03;;;1.27;100.00
18765;BME280;9511;54.242;12.448;2023-01-23T06:08:19;103708.22;;;1.34;100.00
18765;BME280;9511;54.242;12.448;2023-01-23T06:10:47;103703.00;;;1.34;100.00
18765;BME280;9511;54.242;12.448;2023-01-23T06:13:16;103717.75;;;1.49;100.00
18765;BME280;9511;54.242;12.448;2023-01-23T06:15:43;103712.84;;;1.52;100.00
18765;BME280;9511;54.242;12.448;2023-01-23T06:18:11;103716.47;;;1.46;100.00
18765;BME280;9511;54.242;12.448;2023-01-23T06:20:38;103726.63;;;1.51;100.00
18765;BME280;9511;54.242;12.448;2023-01-23T06:23:06;103726.63;;;1.51;100.00
18765;BME280;9511;54.242;12.448;2023-01-23T06:25:35;103725.72;;;1.51;100.00
18765;BME280;9511;54.242;12.448;2023-01-23T06:28:05;103727.56;;;1.52;100.00
18765;BME280;9511;54.242;12.448;2023-01-23T06:30:35;103721.06;;;1.48;100.00
18765;BME280;9511;54.242;12.448;2023-01-23T06:33:07;103727.41;;;1.50;100.00
18765;BME280;9511;54.242;12.448;2023-01-23T06:35:39;103729.50;;;1.46;100.00
18765;BME280;9511;54.242;12.448;2023-01-23T06:38:07;103729.50;;;1.46;100.00
18765;BME280;9511;54.242;12.448;2023-01-23T06:40:34;103730.28;;;1.45;100.00
18765;BME280;9511;54.242;12.448;2023-01-23T06:43:17;103742.19;;;1.43;100.00
18765;BME280;9511;54.242;12.448;2023-01-23T06:45:46;103738.91;;;1.37;100.00
18765;BME280;9511;54.242;12.448;2023-01-23T06:48:15;103741.22;;;1.33;100.00
18765;BME280;9511;54.242;12.448;2023-01-23T06:50:42;103745.66;;;1.35;100.00
18765;BME280;9511;54.242;12.448;2023-01-23T06:53:12;103744.56;;;1.32;100.00
18765;BME280;9511;54.242;12.448;2023-01-23T06:55:40;103744.22;;;1.29;100.00
18765;BME280;9511;54.242;12.448;2023-01-23T06:58:09;103750.28;;;1.21;100.00
18765;BME280;9511;54.242;12.448;2023-01-23T07:00:37;103748.41;;;1.20;100.00
18765;BME280;9511;54.242;12.448;2023-01-23T07:03:09;103747.16;;;1.17;100.00
18765;BME280;9511;54.242;12.448;2023-01-23T07:05:37;103757.91;;;1.20;100.00
18765;BME280;9511;54.242;12.448;2023-01-23T07:08:06;103758.84;;;1.20;100.00
18765;BME280;9511;54.242;12.448;2023-01-23T07:10:34;103760.97;;;1.16;100.00
18765;BME280;9511;54.242;12.448;2023-01-23T07:13:03;103758.44;;;1.24;100.00
18765;BME280;9511;54.242;12.448;2023-01-23T07:15:30;103769.63;;;1.23;100.00
18765;BME280;9511;54.242;12.448;2023-01-23T07:17:57;103769.63;;;1.23;100.00
18765;BME280;9511;54.242;12.448;2023-01-23T07:20:26;103775.75;;;1.24;100.00
18765;BME280;9511;54.242;12.448;2023-01-23T07:22:57;103779.44;;;1.26;100.00
18765;BME280;9511;54.242;12.448;2023-01-23T07:25:24;103789.88;;;1.26;100.00
18765;BME280;9511;54.242;12.448;2023-01-23T07:27:51;103790.47;;;1.23;100.00
18765;BME280;9511;54.242;12.448;2023-01-23T07:30:19;103798.47;;;1.25;100.00
18765;BME280;9511;54.242;12.448;2023-01-23T07:32:46;103796.97;;;1.27;100.00
18765;BME280;9511;54.242;12.448;2023-01-23T07:35:13;103804.97;;;1.28;100.00
18765;BME280;9511;54.242;12.448;2023-01-23T07:37:42;103799.75;;;1.28;100.00
18765;BME280;9511;54.242;12.448;2023-01-23T07:40:10;103794.19;;;1.25;100.00
18765;BME280;9511;54.242;12.448;2023-01-23T07:42:38;103795.69;;;1.23;100.00
18765;BME280;9511;54.242;12.448;2023-01-23T07:45:08;103800.91;;;1.23;100.00
18765;BME280;9511;54.242;12.448;2023-01-23T07:47:36;103802.75;;;1.24;100.00
18765;BME280;9511;54.242;12.448;2023-01-23T07:50:05;103814.47;;;1.28;100.00
18765;BME280;9511;54.242;12.448;2023-01-23T07:52:32;103813.47;;;1.35;100.00
18765;BME280;9511;54.242;12.448;2023-01-23T07:55:01;103815.31;;;1.36;100.00
18765;BME280;9511;54.242;12.448;2023-01-23T07:57:28;103817.91;;;1.36;100.00
18765;BME280;9511;54.242;12.448;2023-01-23T07:59:55;103817.16;;;1.37;100.00
18765;BME280;9511;54.242;12.448;2023-01-23T08:02:22;103810.84;;;1.35;100.00
18765;BME280;9511;54.242;12.448;2023-01-23T08:04:50;103807.47;;;1.36;100.00
18765;BME280;9511;54.242;12.448;2023-01-23T08:07:17;103819.75;;;1.37;100.00
18765;BME280;9511;54.242;12.448;2023-01-23T08:09:44;103826.25;;;1.40;100.00
18765;BME280;9511;54.242;12.448;2023-01-23T08:12:13;103834.66;;;1.38;100.00
18765;BME280;9511;54.242;12.448;2023-01-23T08:14:40;103839.13;;;1.39;100.00
18765;BME280;9511;54.242;12.448;2023-01-23T08:17:07;103846.59;;;1.36;100.00
18765;BME280;9511;54.242;12.448;2023-01-23T08:19:35;103842.84;;;1.41;100.00
18765;BME280;9511;54.242;12.448;2023-01-23T08:22:02;103846.03;;;1.38;100.00
18765;BME280;9511;54.242;12.448;2023-01-23T08:24:29;103854.59;;;1.37;100.00
18765;BME280;9511;54.242;12.448;2023-01-23T08:26:57;103855.34;;;1.36;100.00
18765;BME280;9511;54.242;12.448;2023-01-23T08:29:25;103856.28;;;1.37;100.00
18765;BME280;9511;54.242;12.448;2023-01-23T08:31:52;103860.72;;;1.38;100.00
18765;BME280;9511;54.242;12.448;2023-01-23T08:34:20;103860.50;;;1.43;100.00
18765;BME280;9511;54.242;12.448;2023-01-23T08:36:49;103868.16;;;1.42;100.00
18765;BME280;9511;54.242;12.448;2023-01-23T08:39:16;103874.50;;;1.44;100.00
18765;BME280;9511;54.242;12.448;2023-01-23T08:41:44;103875.41;;;1.44;100.00
18765;BME280;9511;54.242;12.448;2023-01-23T08:44:12;103872.97;;;1.46;100.00
18765;BME280;9511;54.242;12.448;2023-01-23T08:46:41;103861.59;;;1.45;100.00
18765;BME280;9511;54.242;12.448;2023-01-23T08:49:09;103862.84;;;1.49;100.00
18765;BME280;9511;54.242;12.448;2023-01-23T08:51:37;103859.31;;;1.48;100.00
18765;BME280;9511;54.242;12.448;2023-01-23T08:54:04;103862.84;;;1.49;100.00
18765;BME280;9511;54.242;12.448;2023-01-23T08:56:34;103872.56;;;1.50;100.00
18765;BME280;9511;54.242;12.448;2023-01-23T08:59:02;103863.22;;;1.52;100.00
18765;BME280;9511;54.242;12.448;2023-01-23T09:01:29;103864.28;;;1.54;100.00
18765;BME280;9511;54.242;12.448;2023-01-23T09:03:57;103861.69;;;1.54;100.00
18765;BME280;9511;54.242;12.448;2023-01-23T09:06:25;103869.50;;;1.54;100.00
18765;BME280;9511;54.242;12.448;2023-01-23T09:08:52;103862.03;;;1.57;100.00
18765;BME280;9511;54.242;12.448;2023-01-23T09:11:19;103862.38;;;1.60;100.00
18765;BME280;9511;54.242;12.448;2023-01-23T09:13:48;103860.53;;;1.59;100.00
18765;BME280;9511;54.242;12.448;2023-01-23T09:16:15;103877.28;;;1.61;100.00
18765;BME280;9511;54.242;12.448;2023-01-23T09:18:43;103871.63;;;1.65;100.00
18765;BME280;9511;54.242;12.448;2023-01-23T09:21:14;103872.75;;;1.67;100.00
18765;BME280;9511;54.242;12.448;2023-01-23T09:23:42;103876.44;;;1.69;100.00
18765;BME280;9511;54.242;12.448;2023-01-23T09:26:11;103879.81;;;1.68;100.00
18765;BME280;9511;54.242;12.448;2023-01-23T09:28:39;103875.69;;;1.70;100.00
18765;BME280;9511;54.242;12.448;2023-01-23T09:31:10;103880.91;;;1.70;100.00
18765;BME280;9511;54.242;12.448;2023-01-23T09:33:38;103880.09;;;1.78;100.00
18765;BME280;9511;54.242;12.448;2023-01-23T09:36:07;103880.41;;;1.81;100.00
18765;BME280;9511;54.242;12.448;2023-01-23T09:38:35;103877.03;;;1.82;100.00
18765;BME280;9511;54.242;12.448;2023-01-23T09:41:08;103881.94;;;1.79;100.00
18765;BME280;9511;54.242;12.448;2023-01-23T09:43:40;103874.63;;;1.84;100.00
18765;BME280;9511;54.242;12.448;2023-01-23T09:46:15;103872.69;;;1.90;100.00
18765;BME280;9511;54.242;12.448;2023-01-23T09:48:46;103874.38;;;1.90;100.00
18765;BME280;9511;54.242;12.448;2023-01-23T09:51:20;103866.09;;;1.94;100.00
18765;BME280;9511;54.242;12.448;2023-01-23T09:53:51;103868.88;;;1.95;100.00
18765;BME280;9511;54.242;12.448;2023-01-23T09:56:30;103863.72;;;2.04;100.00
18765;BME280;9511;54.242;12.448;2023-01-23T09:59:02;103860.03;;;2.02;100.00
18765;BME280;9511;54.242;12.448;2023-01-23T10:01:33;103860.88;;;2.09;100.00
18765;BME280;9511;54.242;12.448;2023-01-23T10:04:01;103852.41;;;2.12;100.00
18765;BME280;9511;54.242;12.448;2023-01-23T10:06:30;103862.59;;;2.18;100.00
18765;BME280;9511;54.242;12.448;2023-01-23T10:09:10;103863.13;;;2.22;100.00
18765;BME280;9511;54.242;12.448;2023-01-23T10:11:50;103866.84;;;2.24;100.00
18765;BME280;9511;54.242;12.448;2023-01-23T10:14:38;103862.59;;;2.33;100.00
18765;BME280;9511;54.242;12.448;2023-01-23T10:17:19;103863.69;;;2.35;100.00
18765;BME280;9511;54.242;12.448;2023-01-23T10:20:13;103860.06;;;2.42;100.00
18765;BME280;9511;54.242;12.448;2023-01-23T10:22:46;103855.75;;;2.43;100.00
18765;BME280;9511;54.242;12.448;2023-01-23T10:25:21;103853.13;;;2.43;100.00
18765;BME280;9511;54.242;12.448;2023-01-23T10:27:55;103854.22;;;2.45;100.00
18765;BME280;9511;54.242;12.448;2023-01-23T10:30:26;103849.34;;;2.48;100.00
18765;BME280;9511;54.242;12.448;2023-01-23T10:33:00;103846.91;;;2.58;99.50
18765;BME280;9511;54.242;12.448;2023-01-23T10:35:31;103849.72;;;2.59;99.75
18765;BME280;9511;54.242;12.448;2023-01-23T10:38:11;103848.53;;;2.64;99.37
18765;BME280;9511;54.242;12.448;2023-01-23T10:40:47;103844.81;;;2.62;99.22
18765;BME280;9511;54.242;12.448;2023-01-23T10:43:32;103843.59;;;2.67;99.02
18765;BME280;9511;54.242;12.448;2023-01-23T10:45:59;103836.41;;;2.74;98.77
18765;BME280;9511;54.242;12.448;2023-01-23T10:48:34;103833.53;;;2.79;98.62
18765;BME280;9511;54.242;12.448;2023-01-23T10:51:04;103838.25;;;2.75;97.94
18765;BME280;9511;54.242;12.448;2023-01-23T10:54:02;103832.03;;;2.81;97.83
18765;BME280;9511;54.242;12.448;2023-01-23T10:56:34;103818.47;;;2.85;97.66
18765;BME280;9511;54.242;12.448;2023-01-23T10:59:04;103823.06;;;2.79;97.51
18765;BME280;9511;54.242;12.448;2023-01-23T11:01:33;103824.06;;;2.88;97.39
18765;BME280;9511;54.242;12.448;2023-01-23T11:04:09;103820.22;;;2.93;96.93
18765;BME280;9511;54.242;12.448;2023-01-23T11:06:37;103827.03;;;3.00;96.90
18765;BME280;9511;54.242;12.448;2023-01-23T11:09:17;103829.78;;;3.02;96.65
18765;BME280;9511;54.242;12.448;2023-01-23T11:11:58;103840.69;;;2.98;95.98
18765;BME280;9511;54.242;12.448;2023-01-23T11:14:26;103839.19;;;3.00;95.25
18765;BME280;9511;54.242;12.448;2023-01-23T11:17:01;103835.03;;;3.02;95.17
18765;BME280;9511;54.242;12.448;2023-01-23T11:19:30;103841.03;;;3.01;94.62
18765;BME280;9511;54.242;12.448;2023-01-23T11:22:00;103839.75;;;2.88;94.48
18765;BME280;9511;54.242;12.448;2023-01-23T11:24:33;103848.94;;;2.85;93.85
18765;BME280;9511;54.242;12.448;2023-01-23T11:27:05;103842.78;;;2.84;94.31
18765;BME280;9511;54.242;12.448;2023-01-23T11:32:40;103834.81;;;2.91;93.45
18765;BME280;9511;54.242;12.448;2023-01-23T11:35:12;103838.63;;;2.86;93.31
18765;BME280;9511;54.242;12.448;2023-01-23T11:37:41;103836.00;;;2.86;93.66
18765;BME280;9511;54.242;12.448;2023-01-23T11:40:11;103835.72;;;2.83;93.28
18765;BME280;9511;54.242;12.448;2023-01-23T11:42:42;103823.72;;;2.85;93.84
18765;BME280;9511;54.242;12.448;2023-01-23T11:45:13;103822.63;;;2.83;93.35
18765;BME280;9511;54.242;12.448;2023-01-23T11:47:59;103827.09;;;2.84;93.43
18765;BME280;9511;54.242;12.448;2023-01-23T11:50:41;103824.00;;;2.80;93.08
18765;BME280;9511;54.242;12.448;2023-01-23T11:53:20;103832.59;;;2.79;93.50
18765;BME280;9511;54.242;12.448;2023-01-23T11:55:57;103828.91;;;2.77;92.59
18765;BME280;9511;54.242;12.448;2023-01-23T11:58:59;103835.19;;;2.70;92.02
18765;BME280;9511;54.242;12.448;2023-01-23T12:01:37;103833.50;;;2.71;91.52
18765;BME280;9511;54.242;12.448;2023-01-23T12:04:18;103837.03;;;2.71;91.51
18765;BME280;9511;54.242;12.448;2023-01-23T12:07:16;103834.72;;;2.74;91.04
18765;BME280;9511;54.242;12.448;2023-01-23T12:09:52;103839.03;;;2.74;90.64
18765;BME280;9511;54.242;12.448;2023-01-23T12:12:27;103843.03;;;2.70;89.62
18765;BME280;9511;54.242;12.448;2023-01-23T12:15:04;103837.81;;;2.70;89.62
18765;BME280;9511;54.242;12.448;2023-01-23T12:17:40;103836.25;;;2.72;90.08
18765;BME280;9511;54.242;12.448;2023-01-23T12:20:21;103830.69;;;2.69;89.53
18765;BME280;9511;54.242;12.448;2023-01-23T12:23:03;103835.28;;;2.63;89.26
18765;BME280;9511;54.242;12.448;2023-01-23T12:25:35;103838.38;;;2.67;89.16
18765;BME280;9511;54.242;12.448;2023-01-23T12:28:13;103839.03;;;2.74;88.84
18765;BME280;9511;54.242;12.448;2023-01-23T12:31:02;103834.56;;;2.73;88.47
18765;BME280;9511;54.242;12.448;2023-01-23T12:33:44;103831.03;;;2.72;87.91
18765;BME280;9511;54.242;12.448;2023-01-23T12:36:23;103833.69;;;2.81;87.97
18765;BME280;9511;54.242;12.448;2023-01-23T12:39:02;103845.78;;;2.72;87.33
18765;BME280;9511;54.242;12.448;2023-01-23T12:41:36;103844.88;;;2.71;87.45
18765;BME280;9511;54.242;12.448;2023-01-23T12:44:11;103855.75;;;2.67;86.79
18765;BME280;9511;54.242;12.448;2023-01-23T12:46:47;103856.69;;;2.67;87.18
18765;BME280;9511;54.242;12.448;2023-01-23T12:49:22;103866.84;;;2.73;87.08
18765;BME280;9511;54.242;12.448;2023-01-23T12:51:54;103857.16;;;2.72;86.87
18765;BME280;9511;54.242;12.448;2023-01-23T12:54:30;103871.44;;;2.67;86.90
18765;BME280;9511;54.242;12.448;2023-01-23T12:57:00;103856.84;;;2.69;86.56
18765;BME280;9511;54.242;12.448;2023-01-23T12:59:35;103865.78;;;2.71;86.02
18765;BME280;9511;54.242;12.448;2023-01-23T13:02:15;103863.28;;;2.64;85.07
18765;BME280;9511;54.242;12.448;2023-01-23T13:04:59;103864.94;;;2.63;84.60
18765;BME280;9511;54.242;12.448;2023-01-23T13:07:40;103855.59;;;2.65;84.57
18765;BME280;9511;54.242;12.448;2023-01-23T13:10:19;103855.09;;;2.61;84.92
18765;BME280;9511;54.242;12.448;2023-01-23T13:12:53;103858.06;;;2.64;85.24
18765;BME280;9511;54.242;12.448;2023-01-23T13:15:30;103866.63;;;2.63;85.31
18765;BME280;9511;54.242;12.448;2023-01-23T13:18:00;103862.03;;;2.60;85.11
18765;BME280;9511;54.242;12.448;2023-01-23T13:20:29;103863.56;;;2.58;84.91